sensor_id;sensor_type;location;lat;lon;timestamp;pressure;altitude;pressure_sealevel;temperature;humidity
20027;BME280;10174;42.688;23.344;2023-03-01T00:01:31;95805.38;;;6.60;84.20
20027;BME280;10174;42.688;23.344;2023-03-01T00:03:57;95739.69;;;6.29;84.21
20027;BME280;10174;42.688;23.344;2023-03-01T00:06:24;95783.47;;;6.70;83.69
20027;BME280;10174;42.688;23.344;2023-03-01T00:08:50;95696.09;;;6.17;83.43
20027;BME280;10174;42.688;23.344;2023-03-01T00:13:42;95794.44;;;6.81;82.95
20027;BME280;10174;42.688;23.344;2023-03-01T00:16:11;95801.84;;;6.48;84.44
20027;BME280;10174;42.688;23.344;2023-03-01T00:18:38;95645.59;;;5.55;84.42
20027;BME280;10174;42.688;23.344;2023-03-01T00:21:04;95770.88;;;6.29;84.50
20027;BME280;10174;42.688;23.344;2023-03-01T00:23:29;95726.13;;;6.12;84.46
20027;BME280;10174;42.688;23.344;2023-03-01T00:25:55;95791.16;;;6.48;85.15
20027;BME280;10174;42.688;23.344;2023-03-01T00:28:21;95780.59;;;6.41;84.46
20027;BME280;10174;42.688;23.344;2023-03-01T00:30:46;95755.31;;;6.26;84.64
20027;BME280;10174;42.688;23.344;2023-03-01T00:33:12;95779.31;;;6.44;84.24
20027;BME280;10174;42.688;23.344;2023-03-01T00:35:38;95788.44;;;6.36;84.72
20027;BME280;10174;42.688;23.344;2023-03-01T00:38:04;95773.72;;;6.34;84.78
20027;BME280;10174;42.688;23.344;2023-03-01T00:40:32;95774.59;;;6.28;85.00
20027;BME280;10174;42.688;23.344;2023-03-01T00:42:57;95766.28;;;6.36;84.66
20027;BME280;10174;42.688;23.344;2023-03-01T00:45:23;95765.09;;;6.32;84.71
20027;BME280;10174;42.688;23.344;2023-03-01T00:47:49;95771.44;;;6.19;85.21
20027;BME280;10174;42.688;23.344;2023-03-01T00:50:15;95764.91;;;6.15;85.53
20027;BME280;10174;42.688;23.344;2023-03-01T00:52:41;95765.69;;;6.15;85.29
20027;BME280;10174;42.688;23.344;2023-03-01T00:55:06;95750.69;;;6.02;85.68
20027;BME280;10174;42.688;23.344;2023-03-01T00:57:32;95747.34;;;6.07;84.96
20027;BME280;10174;42.688;23.344;2023-03-01T00:59:58;95665.13;;;5.67;85.43
20027;BME280;10174;42.688;23.344;2023-03-01T01:02:24;95766.75;;;6.33;84.26
20027;BME280;10174;42.688;23.344;2023-03-01T01:04:50;95738.75;;;6.05;84.39
20027;BME280;10174;42.688;23.344;2023-03-01T01:07:15;95769.06;;;6.29;84.57
20027;BME280;10174;42.688;23.344;2023-03-01T01:09:41;95775.88;;;6.25;84.70
20027;BME280;10174;42.688;23.344;2023-03-01T01:12:07;95764.81;;;6.21;84.94
20027;BME280;10174;42.688;23.344;2023-03-01T01:14:33;95752.97;;;6.17;84.55
20027;BME280;10174;42.688;23.344;2023-03-01T01:16:58;95768.53;;;6.20;84.68
20027;BME280;10174;42.688;23.344;2023-03-01T01:19:24;95740.38;;;6.06;84.65
20027;BME280;10174;42.688;23.344;2023-03-01T01:21:49;95766.91;;;6.19;84.81
20027;BME280;10174;42.688;23.344;2023-03-01T01:24:15;95771.34;;;6.26;84.22
20027;BME280;10174;42.688;23.344;2023-03-01T01:26:41;95749.34;;;6.12;83.85
20027;BME280;10174;42.688;23.344;2023-03-01T01:29:07;95765.19;;;6.25;84.18
20027;BME280;10174;42.688;23.344;2023-03-01T01:31:35;95774.16;;;6.31;83.96
20027;BME280;10174;42.688;23.344;2023-03-01T01:34:03;95764.66;;;6.35;83.35
20027;BME280;10174;42.688;23.344;2023-03-01T01:36:29;95769.72;;;6.24;83.57
20027;BME280;10174;42.688;23.344;2023-03-01T01:38:54;95777.06;;;6.29;84.01
20027;BME280;10174;42.688;23.344;2023-03-01T01:41:20;95759.66;;;6.08;83.59
20027;BME280;10174;42.688;23.344;2023-03-01T01:46:32;95763.66;;;6.17;83.33
20027;BME280;10174;42.688;23.344;2023-03-01T01:49:22;95757.56;;;6.10;82.85
20027;BME280;10174;42.688;23.344;2023-03-01T01:51:51;95699.63;;;5.62;83.24
20027;BME280;10174;42.688;23.344;2023-03-01T01:54:23;95718.00;;;5.88;82.45
20027;BME280;10174;42.688;23.344;2023-03-01T01:56:55;95700.34;;;5.87;82.65
20027;BME280;10174;42.688;23.344;2023-03-01T01:59:23;95761.94;;;6.23;82.61
20027;BME280;10174;42.688;23.344;2023-03-01T02:01:51;95771.97;;;6.39;81.15
20027;BME280;10174;42.688;23.344;2023-03-01T02:04:17;95755.47;;;6.31;81.45
20027;BME280;10174;42.688;23.344;2023-03-01T02:06:53;95759.25;;;6.41;81.36
20027;BME280;10174;42.688;23.344;2023-03-01T02:09:23;95670.09;;;5.82;81.58
20027;BME280;10174;42.688;23.344;2023-03-01T02:11:49;95746.13;;;6.40;80.60
20027;BME280;10174;42.688;23.344;2023-03-01T02:14:15;95743.13;;;6.48;80.14
20027;BME280;10174;42.688;23.344;2023-03-01T02:16:41;95722.41;;;6.32;80.57
20027;BME280;10174;42.688;23.344;2023-03-01T02:19:09;95684.34;;;6.06;80.05
20027;BME280;10174;42.688;23.344;2023-03-01T02:27:22;95673.69;;;5.87;80.26
20027;BME280;10174;42.688;23.344;2023-03-01T02:29:51;95666.19;;;5.96;79.74
20027;BME280;10174;42.688;23.344;2023-03-01T02:32:17;95679.00;;;6.06;79.72
20027;BME280;10174;42.688;23.344;2023-03-01T02:34:54;95731.63;;;6.17;80.42
20027;BME280;10174;42.688;23.344;2023-03-01T02:37:20;95739.34;;;6.07;80.86
20027;BME280;10174;42.688;23.344;2023-03-01T02:39:53;95713.25;;;6.09;80.49
20027;BME280;10174;42.688;23.344;2023-03-01T02:42:26;95714.56;;;6.18;80.08
20027;BME280;10174;42.688;23.344;2023-03-01T02:44:54;95720.56;;;6.32;80.33
20027;BME280;10174;42.688;23.344;2023-03-01T02:47:20;95744.03;;;6.42;80.85
20027;BME280;10174;42.688;23.344;2023-03-01T02:49:45;95667.63;;;5.62;81.27
20027;BME280;10174;42.688;23.344;2023-03-01T02:55:15;95763.94;;;6.28;81.70
20027;BME280;10174;42.688;23.344;2023-03-01T02:57:43;95745.47;;;6.26;81.60
20027;BME280;10174;42.688;23.344;2023-03-01T03:00:13;95754.75;;;6.23;81.82
20027;BME280;10174;42.688;23.344;2023-03-01T03:02:46;95757.19;;;6.25;82.20
20027;BME280;10174;42.688;23.344;2023-03-01T03:05:17;95735.31;;;6.16;81.61
20027;BME280;10174;42.688;23.344;2023-03-01T03:07:45;95758.28;;;6.36;81.92
20027;BME280;10174;42.688;23.344;2023-03-01T03:10:17;95625.13;;;5.67;81.53
20027;BME280;10174;42.688;23.344;2023-03-01T03:12:49;95654.31;;;5.80;81.34
20027;BME280;10174;42.688;23.344;2023-03-01T03:15:15;95742.19;;;6.24;81.77
20027;BME280;10174;42.688;23.344;2023-03-01T03:17:42;95766.44;;;6.22;81.21
20027;BME280;10174;42.688;23.344;2023-03-01T03:20:09;95758.53;;;6.16;82.04
20027;BME280;10174;42.688;23.344;2023-03-01T03:22:39;95741.91;;;6.14;81.66
20027;BME280;10174;42.688;23.344;2023-03-01T03:25:06;95745.19;;;6.16;82.27
20027;BME280;10174;42.688;23.344;2023-03-01T03:27:36;95666.91;;;5.73;81.12
20027;BME280;10174;42.688;23.344;2023-03-01T03:30:04;95751.34;;;6.16;82.45
20027;BME280;10174;42.688;23.344;2023-03-01T03:32:36;95737.88;;;6.11;81.77
20027;BME280;10174;42.688;23.344;2023-03-01T03:35:03;95737.34;;;6.02;82.12
20027;BME280;10174;42.688;23.344;2023-03-01T03:37:36;95762.09;;;6.10;82.86
20027;BME280;10174;42.688;23.344;2023-03-01T03:40:20;95732.34;;;5.87;82.96
20027;BME280;10174;42.688;23.344;2023-03-01T03:45:30;95777.59;;;6.01;83.19
20027;BME280;10174;42.688;23.344;2023-03-01T03:48:14;95759.34;;;5.98;82.82
20027;BME280;10174;42.688;23.344;2023-03-01T03:50:41;95724.53;;;5.93;81.84
20027;BME280;10174;42.688;23.344;2023-03-01T03:53:10;95782.25;;;6.05;83.08
20027;BME280;10174;42.688;23.344;2023-03-01T03:55:36;95783.72;;;6.01;83.15
20027;BME280;10174;42.688;23.344;2023-03-01T03:58:05;95672.69;;;5.33;83.06
20027;BME280;10174;42.688;23.344;2023-03-01T04:00:36;95762.59;;;6.00;83.10
20027;BME280;10174;42.688;23.344;2023-03-01T04:03:02;95780.69;;;5.98;83.30
20027;BME280;10174;42.688;23.344;2023-03-01T04:05:28;95780.69;;;5.98;83.05
20027;BME280;10174;42.688;23.344;2023-03-01T04:07:54;95757.41;;;5.86;83.08
20027;BME280;10174;42.688;23.344;2023-03-01T04:10:37;95784.69;;;6.07;82.68
20027;BME280;10174;42.688;23.344;2023-03-01T04:13:03;95771.47;;;5.75;83.30
20027;BME280;10174;42.688;23.344;2023-03-01T04:15:30;95702.44;;;5.48;83.12
20027;BME280;10174;42.688;23.344;2023-03-01T04:17:56;95756.34;;;5.69;83.58
20027;BME280;10174;42.688;23.344;2023-03-01T04:20:27;95763.44;;;5.57;83.96
20027;BME280;10174;42.688;23.344;2023-03-01T04:22:59;95784.03;;;5.68;84.40
20027;BME280;10174;42.688;23.344;2023-03-01T04:25:24;95763.13;;;5.46;84.50
20027;BME280;10174;42.688;23.344;2023-03-01T04:27:50;95707.41;;;5.01;84.62
20027;BME280;10174;42.688;23.344;2023-03-01T04:30:15;95793.31;;;5.65;84.68
20027;BME280;10174;42.688;23.344;2023-03-01T04:32:41;95769.66;;;5.50;84.76
20027;BME280;10174;42.688;23.344;2023-03-01T04:35:07;95771.16;;;5.65;84.21
20027;BME280;10174;42.688;23.344;2023-03-01T04:37:32;95744.66;;;5.51;84.26
20027;BME280;10174;42.688;23.344;2023-03-01T04:39:58;95769.25;;;5.72;84.35
20027;BME280;10174;42.688;23.344;2023-03-01T04:42:23;95755.53;;;5.50;84.48
20027;BME280;10174;42.688;23.344;2023-03-01T04:44:48;95772.47;;;5.56;84.72
20027;BME280;10174;42.688;23.344;2023-03-01T04:47:16;95782.69;;;5.59;84.55
20027;BME280;10174;42.688;23.344;2023-03-01T04:49:42;95773.38;;;5.68;84.72
20027;BME280;10174;42.688;23.344;2023-03-01T04:52:07;95650.13;;;4.92;84.38
20027;BME280;10174;42.688;23.344;2023-03-01T04:54:35;95764.13;;;5.70;83.64
20027;BME280;10174;42.688;23.344;2023-03-01T04:57:01;95742.00;;;5.70;83.93
20027;BME280;10174;42.688;23.344;2023-03-01T04:59:26;95719.91;;;5.63;83.37
20027;BME280;10174;42.688;23.344;2023-03-01T05:01:53;95777.72;;;6.06;82.91
20027;BME280;10174;42.688;23.344;2023-03-01T05:04:23;95769.00;;;5.99;83.26
20027;BME280;10174;42.688;23.344;2023-03-01T05:06:49;95775.34;;;5.98;83.21
20027;BME280;10174;42.688;23.344;2023-03-01T05:09:14;95760.22;;;5.92;83.04
20027;BME280;10174;42.688;23.344;2023-03-01T05:11:40;95780.81;;;6.03;83.60
20027;BME280;10174;42.688;23.344;2023-03-01T05:14:06;95788.53;;;5.93;83.10
20027;BME280;10174;42.688;23.344;2023-03-01T05:16:33;95771.78;;;5.85;84.20
20027;BME280;10174;42.688;23.344;2023-03-01T05:18:58;95747.31;;;5.70;83.59
20027;BME280;10174;42.688;23.344;2023-03-01T05:21:24;95779.91;;;5.91;83.56
20027;BME280;10174;42.688;23.344;2023-03-01T05:23:49;95775.34;;;5.98;83.07
20027;BME280;10174;42.688;23.344;2023-03-01T05:26:16;95786.34;;;5.83;83.91
20027;BME280;10174;42.688;23.344;2023-03-01T05:28:43;95774.81;;;5.89;83.89
20027;BME280;10174;42.688;23.344;2023-03-01T05:31:08;95775.19;;;5.93;83.36
20027;BME280;10174;42.688;23.344;2023-03-01T05:33:39;95765.31;;;5.75;83.92
20027;BME280;10174;42.688;23.344;2023-03-01T05:36:09;95753.47;;;5.70;83.95
20027;BME280;10174;42.688;23.344;2023-03-01T05:38:37;95723.47;;;5.57;84.23
20027;BME280;10174;42.688;23.344;2023-03-01T05:41:02;95675.31;;;5.14;84.13
20027;BME280;10174;42.688;23.344;2023-03-01T05:43:31;95789.56;;;5.92;84.11
20027;BME280;10174;42.688;23.344;2023-03-01T05:45:59;95787.94;;;6.09;83.40
20027;BME280;10174;42.688;23.344;2023-03-01T05:48:25;95760.44;;;5.71;83.97
20027;BME280;10174;42.688;23.344;2023-03-01T05:50:51;95752.00;;;5.93;82.40
20027;BME280;10174;42.688;23.344;2023-03-01T05:53:18;95782.34;;;5.99;83.31
20027;BME280;10174;42.688;23.344;2023-03-01T05:55:46;95785.03;;;5.92;83.10
20027;BME280;10174;42.688;23.344;2023-03-01T05:58:19;95791.31;;;5.79;83.91
20027;BME280;10174;42.688;23.344;2023-03-01T06:00:46;95811.91;;;5.91;83.87
20027;BME280;10174;42.688;23.344;2023-03-01T06:03:13;95809.41;;;5.96;84.29
20027;BME280;10174;42.688;23.344;2023-03-01T06:05:40;95794.63;;;5.56;84.42
20027;BME280;10174;42.688;23.344;2023-03-01T06:08:05;95809.00;;;5.74;84.28
20027;BME280;10174;42.688;23.344;2023-03-01T06:10:31;95818.31;;;5.89;83.53
20027;BME280;10174;42.688;23.344;2023-03-01T06:12:57;95810.03;;;5.98;82.93
20027;BME280;10174;42.688;23.344;2023-03-01T06:15:23;95798.34;;;5.92;83.56
20027;BME280;10174;42.688;23.344;2023-03-01T06:17:49;95738.56;;;5.44;83.33
20027;BME280;10174;42.688;23.344;2023-03-01T06:20:21;95826.63;;;6.00;83.00
20027;BME280;10174;42.688;23.344;2023-03-01T06:22:48;95829.81;;;6.09;83.07
20027;BME280;10174;42.688;23.344;2023-03-01T06:25:17;95801.69;;;5.87;83.41
20027;BME280;10174;42.688;23.344;2023-03-01T06:27:43;95831.97;;;6.00;83.52
20027;BME280;10174;42.688;23.344;2023-03-01T06:30:15;95781.38;;;5.68;83.62
20027;BME280;10174;42.688;23.344;2023-03-01T06:32:41;95780.34;;;5.69;83.63
20027;BME280;10174;42.688;23.344;2023-03-01T06:35:10;95769.69;;;5.87;82.13
20027;BME280;10174;42.688;23.344;2023-03-01T06:37:36;95803.66;;;5.99;82.22
20027;BME280;10174;42.688;23.344;2023-03-01T06:40:05;95782.22;;;5.87;82.16
20027;BME280;10174;42.688;23.344;2023-03-01T06:42:36;95821.44;;;6.05;81.89
20027;BME280;10174;42.688;23.344;2023-03-01T06:45:02;95782.88;;;5.82;82.27
20027;BME280;10174;42.688;23.344;2023-03-01T06:47:28;95720.94;;;5.62;81.57
20027;BME280;10174;42.688;23.344;2023-03-01T06:49:53;95776.81;;;6.12;80.68
20027;BME280;10174;42.688;23.344;2023-03-01T06:52:18;95769.94;;;6.23;80.47
20027;BME280;10174;42.688;23.344;2023-03-01T06:54:44;95728.09;;;6.05;79.73
20027;BME280;10174;42.688;23.344;2023-03-01T06:57:09;95715.78;;;5.85;80.14
20027;BME280;10174;42.688;23.344;2023-03-01T06:59:34;95818.06;;;6.65;79.84
20027;BME280;10174;42.688;23.344;2023-03-01T07:02:00;95795.31;;;6.44;79.95
20027;BME280;10174;42.688;23.344;2023-03-01T07:04:25;95785.28;;;6.28;80.44
20027;BME280;10174;42.688;23.344;2023-03-01T07:06:53;95828.22;;;6.56;80.02
20027;BME280;10174;42.688;23.344;2023-03-01T07:09:22;95713.69;;;5.87;79.77
20027;BME280;10174;42.688;23.344;2023-03-01T07:11:48;95830.44;;;6.78;78.97
20027;BME280;10174;42.688;23.344;2023-03-01T07:14:13;95832.00;;;6.98;78.27
20027;BME280;10174;42.688;23.344;2023-03-01T07:16:39;95810.63;;;6.98;78.00
20027;BME280;10174;42.688;23.344;2023-03-01T07:19:04;95804.94;;;6.64;79.15
20027;BME280;10174;42.688;23.344;2023-03-01T07:21:30;95787.03;;;6.52;78.81
20027;BME280;10174;42.688;23.344;2023-03-01T07:23:56;95829.53;;;6.66;79.71
20027;BME280;10174;42.688;23.344;2023-03-01T07:26:21;95768.47;;;6.57;79.06
20027;BME280;10174;42.688;23.344;2023-03-01T07:28:47;95761.03;;;6.59;78.25
20027;BME280;10174;42.688;23.344;2023-03-01T07:31:12;95784.31;;;6.71;78.71
20027;BME280;10174;42.688;23.344;2023-03-01T07:33:37;95697.63;;;6.43;77.94
20027;BME280;10174;42.688;23.344;2023-03-01T07:36:04;95783.56;;;6.94;77.56
20027;BME280;10174;42.688;23.344;2023-03-01T07:38:30;95698.41;;;6.74;76.72
20027;BME280;10174;42.688;23.344;2023-03-01T07:41:00;95738.06;;;7.12;76.00
20027;BME280;10174;42.688;23.344;2023-03-01T07:43:27;95781.66;;;7.37;75.40
20027;BME280;10174;42.688;23.344;2023-03-01T07:45:52;95804.22;;;7.41;75.95
20027;BME280;10174;42.688;23.344;2023-03-01T07:48:18;95791.69;;;7.53;75.16
20027;BME280;10174;42.688;23.344;2023-03-01T07:50:43;95762.13;;;7.24;74.78
20027;BME280;10174;42.688;23.344;2023-03-01T07:53:09;95790.50;;;7.49;74.68
20027;BME280;10174;42.688;23.344;2023-03-01T07:55:35;95799.56;;;7.48;75.11
20027;BME280;10174;42.688;23.344;2023-03-01T07:58:00;95703.09;;;7.14;74.64
20027;BME280;10174;42.688;23.344;2023-03-01T08:00:27;95698.78;;;7.01;74.06
20027;BME280;10174;42.688;23.344;2023-03-01T08:02:52;95771.91;;;7.54;73.70
20027;BME280;10174;42.688;23.344;2023-03-01T08:05:18;95773.31;;;7.69;73.25
20027;BME280;10174;42.688;23.344;2023-03-01T08:07:43;95676.56;;;7.48;72.00
20027;BME280;10174;42.688;23.344;2023-03-01T08:10:10;95770.25;;;8.00;72.67
20027;BME280;10174;42.688;23.344;2023-03-01T08:12:35;95761.38;;;8.12;70.97
20027;BME280;10174;42.688;23.344;2023-03-01T08:15:01;95756.22;;;7.58;72.38
20027;BME280;10174;42.688;23.344;2023-03-01T08:17:26;95762.97;;;7.48;73.53
20027;BME280;10174;42.688;23.344;2023-03-01T08:19:51;95765.84;;;7.71;73.78
20027;BME280;10174;42.688;23.344;2023-03-01T08:22:17;95769.00;;;7.91;73.51
20027;BME280;10174;42.688;23.344;2023-03-01T08:24:42;95764.78;;;7.95;71.59
20027;BME280;10174;42.688;23.344;2023-03-01T08:27:08;95782.16;;;8.33;71.29
20027;BME280;10174;42.688;23.344;2023-03-01T08:29:34;95753.84;;;8.37;70.20
20027;BME280;10174;42.688;23.344;2023-03-01T08:31:59;95745.81;;;8.37;70.48
20027;BME280;10174;42.688;23.344;2023-03-01T08:34:25;95752.38;;;8.30;70.28
20027;BME280;10174;42.688;23.344;2023-03-01T08:36:50;95767.97;;;8.45;70.22
20027;BME280;10174;42.688;23.344;2023-03-01T08:39:18;95767.13;;;8.44;70.42
20027;BME280;10174;42.688;23.344;2023-03-01T08:41:44;95716.91;;;8.11;70.78
20027;BME280;10174;42.688;23.344;2023-03-01T08:44:11;95719.91;;;8.26;69.82
20027;BME280;10174;42.688;23.344;2023-03-01T08:46:39;95766.75;;;8.81;69.66
20027;BME280;10174;42.688;23.344;2023-03-01T08:49:12;95785.66;;;8.74;70.04
20027;BME280;10174;42.688;23.344;2023-03-01T08:51:38;95784.41;;;8.65;69.66
20027;BME280;10174;42.688;23.344;2023-03-01T08:54:06;95754.09;;;8.48;68.90
20027;BME280;10174;42.688;23.344;2023-03-01T08:56:32;95766.19;;;8.38;68.96
20027;BME280;10174;42.688;23.344;2023-03-01T08:58:58;95675.81;;;7.88;68.72
20027;BME280;10174;42.688;23.344;2023-03-01T09:01:23;95757.34;;;8.50;67.39
20027;BME280;10174;42.688;23.344;2023-03-01T09:03:49;95730.47;;;8.73;66.86
20027;BME280;10174;42.688;23.344;2023-03-01T09:06:15;95627.91;;;8.15;65.87
20027;BME280;10174;42.688;23.344;2023-03-01T09:08:46;95680.19;;;8.35;66.53
20027;BME280;10174;42.688;23.344;2023-03-01T09:11:14;95765.22;;;9.02;66.04
20027;BME280;10174;42.688;23.344;2023-03-01T09:13:41;95771.44;;;9.37;64.70
20027;BME280;10174;42.688;23.344;2023-03-01T09:16:08;95778.75;;;9.24;65.14
20027;BME280;10174;42.688;23.344;2023-03-01T09:18:34;95788.81;;;9.17;65.43
20027;BME280;10174;42.688;23.344;2023-03-01T09:21:09;95753.34;;;8.64;67.15
20027;BME280;10174;42.688;23.344;2023-03-01T09:23:36;95637.91;;;8.20;66.09
20027;BME280;10174;42.688;23.344;2023-03-01T09:26:03;95777.13;;;9.40;65.23
20027;BME280;10174;42.688;23.344;2023-03-01T09:28:29;95721.28;;;8.69;66.41
20027;BME280;10174;42.688;23.344;2023-03-01T09:30:58;95776.59;;;8.93;67.21
20027;BME280;10174;42.688;23.344;2023-03-01T09:33:24;95691.19;;;8.50;66.51
20027;BME280;10174;42.688;23.344;2023-03-01T09:35:49;95763.38;;;8.57;68.31
20027;BME280;10174;42.688;23.344;2023-03-01T09:38:15;95768.56;;;8.23;69.48
20027;BME280;10174;42.688;23.344;2023-03-01T09:40:44;95738.06;;;7.83;70.71
20027;BME280;10174;42.688;23.344;2023-03-01T09:43:27;95746.88;;;7.96;70.94
20027;BME280;10174;42.688;23.344;2023-03-01T09:45:59;95770.81;;;8.55;69.98
20027;BME280;10174;42.688;23.344;2023-03-01T09:48:33;95692.00;;;8.22;68.91
20027;BME280;10174;42.688;23.344;2023-03-01T09:51:06;95679.19;;;8.24;67.74
20027;BME280;10174;42.688;23.344;2023-03-01T09:53:35;95764.34;;;8.97;67.96
20027;BME280;10174;42.688;23.344;2023-03-01T09:56:30;95752.25;;;9.28;66.59
20027;BME280;10174;42.688;23.344;2023-03-01T09:59:30;95763.81;;;9.45;65.52
20027;BME280;10174;42.688;23.344;2023-03-01T10:04:48;95719.75;;;9.41;64.27
20027;BME280;10174;42.688;23.344;2023-03-01T10:09:48;95729.31;;;9.54;65.07
20027;BME280;10174;42.688;23.344;2023-03-01T10:12:20;95752.03;;;9.86;64.01
20027;BME280;10174;42.688;23.344;2023-03-01T10:17:45;95747.16;;;9.83;64.09
20027;BME280;10174;42.688;23.344;2023-03-01T10:22:43;95718.78;;;9.31;65.91
20027;BME280;10174;42.688;23.344;2023-03-01T10:25:14;95739.34;;;9.59;64.57
20027;BME280;10174;42.688;23.344;2023-03-01T10:27:53;95719.66;;;9.53;64.04
20027;BME280;10174;42.688;23.344;2023-03-01T10:32:59;95700.75;;;9.82;63.16
20027;BME280;10174;42.688;23.344;2023-03-01T10:35:27;95729.75;;;9.85;63.55
20027;BME280;10174;42.688;23.344;2023-03-01T10:38:06;95731.53;;;10.19;63.09
20027;BME280;10174;42.688;23.344;2023-03-01T10:40:34;95723.28;;;10.25;62.57
20027;BME280;10174;42.688;23.344;2023-03-01T10:43:05;95718.28;;;10.12;62.84
20027;BME280;10174;42.688;23.344;2023-03-01T10:45:34;95717.09;;;10.25;61.76
20027;BME280;10174;42.688;23.344;2023-03-01T10:48:26;95709.09;;;9.86;63.18
20027;BME280;10174;42.688;23.344;2023-03-01T10:53:30;95708.53;;;10.06;62.54
20027;BME280;10174;42.688;23.344;2023-03-01T10:56:09;95696.69;;;9.79;63.28
20027;BME280;10174;42.688;23.344;2023-03-01T10:58:39;95696.00;;;10.11;62.11
20027;BME280;10174;42.688;23.344;2023-03-01T11:03:41;95690.84;;;10.32;60.25
20027;BME280;10174;42.688;23.344;2023-03-01T11:08:45;95707.94;;;10.70;60.38
20027;BME280;10174;42.688;23.344;2023-03-01T11:11:22;95691.75;;;10.65;61.07
20027;BME280;10174;42.688;23.344;2023-03-01T11:14:18;95717.25;;;10.90;59.77
20027;BME280;10174;42.688;23.344;2023-03-01T11:16:45;95709.16;;;10.57;61.14
20027;BME280;10174;42.688;23.344;2023-03-01T11:21:47;95688.97;;;10.55;59.90
20027;BME280;10174;42.688;23.344;2023-03-01T11:24:17;95670.72;;;10.07;61.79
20027;BME280;10174;42.688;23.344;2023-03-01T11:26:52;95696.88;;;9.95;62.42
20027;BME280;10174;42.688;23.344;2023-03-01T11:31:56;95705.59;;;10.51;61.41
20027;BME280;10174;42.688;23.344;2023-03-01T11:35:25;95633.16;;;9.85;61.66
20027;BME280;10174;42.688;23.344;2023-03-01T11:37:40;95696.47;;;9.64;62.86
20027;BME280;10174;42.688;23.344;2023-03-01T11:42:45;95661.59;;;10.08;62.63
20027;BME280;10174;42.688;23.344;2023-03-01T11:45:12;95660.63;;;10.20;61.70
20027;BME280;10174;42.688;23.344;2023-03-01T11:48:00;95682.59;;;10.61;61.58
20027;BME280;10174;42.688;23.344;2023-03-01T11:50:44;95651.50;;;10.43;61.76
20027;BME280;10174;42.688;23.344;2023-03-01T11:53:30;95665.31;;;10.51;61.89
20027;BME280;10174;42.688;23.344;2023-03-01T11:56:05;95671.72;;;10.50;62.23
20027;BME280;10174;42.688;23.344;2023-03-01T12:12:05;95656.72;;;10.55;62.27
20027;BME280;10174;42.688;23.344;2023-03-01T12:15:06;95660.25;;;10.87;61.00
20027;BME280;10174;42.688;23.344;2023-03-01T12:20:27;95662.50;;;11.01;60.58
20027;BME280;10174;42.688;23.344;2023-03-01T12:34:38;95655.78;;;10.66;61.33
20027;BME280;10174;42.688;23.344;2023-03-01T12:47:50;95539.31;;;9.68;62.66
20027;BME280;10174;42.688;23.344;2023-03-01T12:53:05;95625.72;;;9.70;64.21
20027;BME280;10174;42.688;23.344;2023-03-01T12:55:38;95615.56;;;9.50;63.75
20027;BME280;10174;42.688;23.344;2023-03-01T12:58:31;95638.94;;;9.99;64.47
20027;BME280;10174;42.688;23.344;2023-03-01T13:06:43;95610.28;;;10.32;62.76
20027;BME280;10174;42.688;23.344;2023-03-01T13:11:44;95622.13;;;10.09;63.30
20027;BME280;10174;42.688;23.344;2023-03-01T13:16:54;95547.19;;;9.31;64.80
20027;BME280;10174;42.688;23.344;2023-03-01T13:19:25;95600.69;;;9.03;66.68
20027;BME280;10174;42.688;23.344;2023-03-01T13:21:54;95633.75;;;9.48;66.50
20027;BME280;10174;42.688;23.344;2023-03-01T13:24:41;95639.63;;;9.67;65.93
20027;BME280;10174;42.688;23.344;2023-03-01T13:34:48;95611.56;;;9.14;68.17
20027;BME280;10174;42.688;23.344;2023-03-01T13:37:26;95598.81;;;9.21;66.92
20027;BME280;10174;42.688;23.344;2023-03-01T13:39:54;95603.38;;;9.42;67.07
20027;BME280;10174;42.688;23.344;2023-03-01T13:42:49;95646.16;;;9.71;66.52
20027;BME280;10174;42.688;23.344;2023-03-01T13:45:17;95639.59;;;9.62;67.15
20027;BME280;10174;42.688;23.344;2023-03-01T13:47:45;95595.31;;;9.20;67.59
20027;BME280;10174;42.688;23.344;2023-03-01T13:50:23;95603.00;;;9.34;67.39
20027;BME280;10174;42.688;23.344;2023-03-01T13:53:03;95636.81;;;9.57;67.60
20027;BME280;10174;42.688;23.344;2023-03-01T13:55:42;95644.38;;;9.60;68.36
20027;BME280;10174;42.688;23.344;2023-03-01T13:58:27;95634.00;;;9.47;67.98
20027;BME280;10174;42.688;23.344;2023-03-01T14:01:07;95526.81;;;8.51;68.71
20027;BME280;10174;42.688;23.344;2023-03-01T14:03:40;95619.19;;;9.22;68.76
20027;BME280;10174;42.688;23.344;2023-03-01T14:06:17;95622.03;;;9.32;68.91
20027;BME280;10174;42.688;23.344;2023-03-01T14:08:47;95634.34;;;9.50;68.82
20027;BME280;10174;42.688;23.344;2023-03-01T14:19:29;95630.56;;;9.29;68.66
20027;BME280;10174;42.688;23.344;2023-03-01T14:24:29;95634.94;;;9.35;69.19
20027;BME280;10174;42.688;23.344;2023-03-01T14:26:58;95627.72;;;9.19;69.83
20027;BME280;10174;42.688;23.344;2023-03-01T14:29:27;95525.91;;;8.46;70.02
20027;BME280;10174;42.688;23.344;2023-03-01T14:31:53;95598.38;;;8.73;70.46
20027;BME280;10174;42.688;23.344;2023-03-01T14:34:23;95633.34;;;9.17;69.80
20027;BME280;10174;42.688;23.344;2023-03-01T14:36:49;95632.88;;;9.03;70.89
20027;BME280;10174;42.688;23.344;2023-03-01T14:39:20;95626.59;;;8.98;70.67
20027;BME280;10174;42.688;23.344;2023-03-01T14:41:48;95566.13;;;8.17;71.83
20027;BME280;10174;42.688;23.344;2023-03-01T14:44:19;95626.22;;;8.72;71.72
20027;BME280;10174;42.688;23.344;2023-03-01T14:46:52;95416.50;;;7.36;72.29
20027;BME280;10174;42.688;23.344;2023-03-01T14:49:30;95609.50;;;8.48;72.38
20027;BME280;10174;42.688;23.344;2023-03-01T14:52:05;95622.75;;;8.43;73.08
20027;BME280;10174;42.688;23.344;2023-03-01T14:54:42;95531.72;;;7.80;73.05
20027;BME280;10174;42.688;23.344;2023-03-01T14:57:34;95628.50;;;8.63;72.42
20027;BME280;10174;42.688;23.344;2023-03-01T15:00:03;95514.16;;;7.84;72.72
20027;BME280;10174;42.688;23.344;2023-03-01T15:02:32;95615.78;;;8.42;73.49
20027;BME280;10174;42.688;23.344;2023-03-01T15:05:02;95608.34;;;8.44;73.07
20027;BME280;10174;42.688;23.344;2023-03-01T15:07:37;95621.75;;;8.61;72.71